createdAt,value
2019-03-23T00:00:12.956Z,70.07
2019-03-23T00:02:42.528Z,66.43
2019-03-23T00:05:11.071Z,74.95
2019-03-23T00:07:39.306Z,70.93
2019-03-23T00:10:08.256Z,67.93
2019-03-23T00:12:38.052Z,69.80
2019-03-23T00:15:08.850Z,67.60
2019-03-23T00:17:37.117Z,70.47
2019-03-23T00:20:06.811Z,71.50
2019-03-23T00:22:35.808Z,66.20
2019-03-23T00:25:04.614Z,73.00
2019-03-23T00:27:33.001Z,67.83
2019-03-23T00:30:01.263Z,72.87
2019-03-23T00:32:29.666Z,74.30
2019-03-23T00:34:57.910Z,76.30
2019-03-23T00:37:27.787Z,65.83
2019-03-23T00:39:56.032Z,73.93
2019-03-23T00:42:24.265Z,69.43
2019-03-23T00:44:52.581Z,68.43
2019-03-23T00:47:20.838Z,67.22
2019-03-23T00:49:49.245Z,65.63
2019-03-23T00:52:17.468Z,68.65
2019-03-23T00:54:45.737Z,74.20
2019-03-23T00:57:13.978Z,62.10
2019-03-23T00:59:42.221Z,69.72
2019-03-23T01:02:10.491Z,66.63
2019-03-23T01:04:38.835Z,69.67
2019-03-23T01:07:07.325Z,61.83
2019-03-23T01:09:35.579Z,66.97
2019-03-23T01:12:03.895Z,70.50
2019-03-23T01:14:32.398Z,74.77
2019-03-23T01:17:00.663Z,65.67
2019-03-23T01:19:28.906Z,69.23
2019-03-23T01:21:57.157Z,67.03
2019-03-23T01:24:25.404Z,62.87
2019-03-23T01:26:53.643Z,65.67
2019-03-23T01:29:21.881Z,67.90
2019-03-23T01:31:50.134Z,69.40
2019-03-23T01:34:18.418Z,56.57
2019-03-23T01:36:46.665Z,61.00
2019-03-23T01:39:14.903Z,57.80
2019-03-23T01:41:43.142Z,58.27
2019-03-23T01:44:11.385Z,54.70
2019-03-23T01:46:39.651Z,62.63
2019-03-23T01:49:09.526Z,57.10
2019-03-23T01:51:37.765Z,51.40
2019-03-23T01:54:06.027Z,54.53
2019-03-23T01:56:34.283Z,50.90
2019-03-23T01:59:02.585Z,50.97
2019-03-23T02:01:30.999Z,47.27
2019-03-23T02:03:59.238Z,46.57
2019-03-23T02:06:27.531Z,47.60
2019-03-23T02:08:56.493Z,45.83
2019-03-23T02:11:24.746Z,50.70
2019-03-23T02:13:52.980Z,47.67
2019-03-23T02:16:21.248Z,49.83
2019-03-23T02:18:49.494Z,42.97
2019-03-23T02:21:17.801Z,47.17
2019-03-23T02:23:46.058Z,42.30
2019-03-23T02:26:14.306Z,43.02
2019-03-23T02:28:42.566Z,44.90
2019-03-23T02:31:10.830Z,46.90
2019-03-23T02:33:39.072Z,42.20
2019-03-23T02:36:08.800Z,44.50
2019-03-23T02:38:37.058Z,42.87
2019-03-23T02:41:06.237Z,42.43
2019-03-23T02:43:34.492Z,41.27
2019-03-23T02:46:05.313Z,41.33
2019-03-23T02:48:33.734Z,39.80
2019-03-23T02:51:02.677Z,37.20
2019-03-23T02:53:30.949Z,36.27
2019-03-23T02:55:59.193Z,40.07
2019-03-23T02:58:27.431Z,38.17
2019-03-23T03:00:55.710Z,39.50
2019-03-23T03:03:23.973Z,38.73
2019-03-23T03:05:52.285Z,34.00
2019-03-23T03:08:20.623Z,38.57
2019-03-23T03:10:49.527Z,36.10
2019-03-23T03:13:17.775Z,36.80
2019-03-23T03:15:46.021Z,37.00
2019-03-23T03:18:14.262Z,39.90
2019-03-23T03:20:42.502Z,37.10
2019-03-23T03:23:10.749Z,37.77
2019-03-23T03:25:38.997Z,38.90
2019-03-23T03:28:07.232Z,40.07
2019-03-23T03:30:35.671Z,38.57
2019-03-23T03:33:03.989Z,35.07
2019-03-23T03:35:32.252Z,38.37
2019-03-23T03:38:00.570Z,41.03
2019-03-23T03:40:29.085Z,40.40
2019-03-23T03:42:57.333Z,35.53
2019-03-23T03:45:28.539Z,40.33
2019-03-23T03:47:57.006Z,35.20
2019-03-23T03:50:25.314Z,34.97
2019-03-23T03:52:53.578Z,35.47
2019-03-23T03:55:21.818Z,32.80
2019-03-23T03:57:50.084Z,33.33
2019-03-23T04:00:18.344Z,38.37
2019-03-23T04:02:46.646Z,39.10
2019-03-23T04:05:14.936Z,36.50
2019-03-23T04:07:43.197Z,37.40
2019-03-23T04:10:11.439Z,33.30
2019-03-23T04:12:40.995Z,37.83
2019-03-23T04:15:10.999Z,39.43
2019-03-23T04:17:39.248Z,42.83
2019-03-23T04:20:12.140Z,32.90
2019-03-23T04:22:40.399Z,35.10
2019-03-23T04:25:09.672Z,36.43
2019-03-23T04:27:37.947Z,36.00
2019-03-23T04:30:09.252Z,35.80
2019-03-23T04:32:37.506Z,34.20
2019-03-23T04:35:07.887Z,38.38
2019-03-23T04:37:36.352Z,36.73
2019-03-23T04:40:06.887Z,37.40
2019-03-23T04:42:35.133Z,36.83
2019-03-23T04:45:04.337Z,37.53
2019-03-23T04:47:32.586Z,36.73
2019-03-23T04:50:00.973Z,35.57
2019-03-23T04:52:29.277Z,38.57
2019-03-23T04:54:57.522Z,38.50
2019-03-23T04:57:25.833Z,36.70
2019-03-23T04:59:54.193Z,34.97
2019-03-23T05:02:22.506Z,40.90
2019-03-23T05:04:50.759Z,38.93
2019-03-23T05:07:19.501Z,36.27
2019-03-23T05:09:47.730Z,35.13
2019-03-23T05:12:15.974Z,35.10
2019-03-23T05:14:44.355Z,35.93
2019-03-23T05:17:12.606Z,38.70
2019-03-23T05:19:40.849Z,39.10
2019-03-23T05:22:09.098Z,36.37
2019-03-23T05:24:37.338Z,35.13
2019-03-23T05:27:06.218Z,42.05
2019-03-23T05:29:34.482Z,39.50
2019-03-23T05:32:02.730Z,38.83
2019-03-23T05:34:30.969Z,40.85
2019-03-23T05:36:59.421Z,38.13
2019-03-23T05:39:27.663Z,38.23
2019-03-23T05:41:55.893Z,40.20
2019-03-23T05:44:26.586Z,38.27
2019-03-23T05:46:54.819Z,36.10
2019-03-23T05:49:23.086Z,34.17
2019-03-23T05:51:51.385Z,39.27
2019-03-23T05:54:19.704Z,42.20
2019-03-23T05:56:47.961Z,40.93
2019-03-23T05:59:16.234Z,41.73
2019-03-23T06:01:44.485Z,38.80
2019-03-23T06:04:12.726Z,35.43
2019-03-23T06:06:40.983Z,38.27
2019-03-23T06:09:09.231Z,33.97
2019-03-23T06:11:37.558Z,38.20
2019-03-23T06:14:06.603Z,39.33
2019-03-23T06:16:35.102Z,38.50
2019-03-23T06:19:04.974Z,41.27
2019-03-23T06:21:33.253Z,34.27
2019-03-23T06:24:01.493Z,38.92
2019-03-23T06:26:29.830Z,39.10
2019-03-23T06:28:58.105Z,38.43
2019-03-23T06:31:26.353Z,39.87
2019-03-23T06:33:54.667Z,39.57
2019-03-23T06:36:23.037Z,39.45
2019-03-23T06:38:51.364Z,36.83
2019-03-23T06:41:19.598Z,37.03
2019-03-23T06:43:47.853Z,42.13
2019-03-23T06:46:18.248Z,39.30
2019-03-23T06:48:48.117Z,39.43
2019-03-23T06:51:16.419Z,39.97
2019-03-23T06:53:44.801Z,36.17
2019-03-23T06:56:13.049Z,37.65
2019-03-23T06:58:41.478Z,34.73
2019-03-23T07:01:09.737Z,36.67
2019-03-23T07:03:37.978Z,37.63
2019-03-23T07:06:06.575Z,38.63
2019-03-23T07:08:34.823Z,37.50
2019-03-23T07:11:03.143Z,37.83
2019-03-23T07:13:31.391Z,37.37
2019-03-23T07:15:59.633Z,41.77
2019-03-23T07:18:27.873Z,47.83
2019-03-23T07:20:56.125Z,39.57
2019-03-23T07:23:24.370Z,38.90
2019-03-23T07:25:52.612Z,41.43
2019-03-23T07:28:20.857Z,38.70
2019-03-23T07:30:49.094Z,37.73
2019-03-23T07:33:17.450Z,36.47
2019-03-23T07:35:46.006Z,38.63
2019-03-23T07:38:14.337Z,42.00
2019-03-23T07:40:42.597Z,43.70
2019-03-23T07:43:10.841Z,42.70
2019-03-23T07:45:39.091Z,39.48
2019-03-23T07:48:07.344Z,41.10
2019-03-23T07:50:35.604Z,37.87
2019-03-23T07:53:03.839Z,39.20
2019-03-23T07:55:32.077Z,40.33
2019-03-23T07:58:00.342Z,36.67
2019-03-23T08:00:28.605Z,37.70
2019-03-23T08:02:56.851Z,38.50
2019-03-23T08:05:25.114Z,41.90
2019-03-23T08:07:53.342Z,40.50
2019-03-23T08:10:28.986Z,39.18
2019-03-23T08:12:57.509Z,40.13
2019-03-23T08:15:25.749Z,40.20
2019-03-23T08:17:54.371Z,38.10
2019-03-23T08:20:22.875Z,34.07
2019-03-23T08:22:51.210Z,39.90
2019-03-23T08:25:19.451Z,36.90
2019-03-23T08:27:47.907Z,39.70
2019-03-23T08:30:16.321Z,39.27
2019-03-23T08:32:44.583Z,38.23
2019-03-23T08:35:12.851Z,36.60
2019-03-23T08:37:41.094Z,37.17
2019-03-23T08:40:09.328Z,32.90
2019-03-23T08:42:37.637Z,35.40
2019-03-23T08:45:06.496Z,35.45
2019-03-23T08:47:34.802Z,35.33
2019-03-23T08:50:03.848Z,33.40
2019-03-23T08:52:32.119Z,35.03
2019-03-23T08:55:00.406Z,35.70
2019-03-23T08:57:28.666Z,39.13
2019-03-23T08:59:56.918Z,42.93
2019-03-23T09:02:25.170Z,35.63
2019-03-23T09:04:53.429Z,33.90
2019-03-23T09:07:21.677Z,37.07
2019-03-23T09:09:58.862Z,34.17
2019-03-23T09:12:20.197Z,30.33
2019-03-23T09:14:48.461Z,35.23
2019-03-23T09:17:16.698Z,37.38
2019-03-23T09:19:45.047Z,37.63
2019-03-23T09:22:13.564Z,37.83
2019-03-23T09:24:41.865Z,31.90
2019-03-23T09:27:12.567Z,32.58
2019-03-23T09:29:41.042Z,33.53
2019-03-23T09:32:09.281Z,35.40
2019-03-23T09:34:56.973Z,34.97
2019-03-23T09:37:25.218Z,34.10
2019-03-23T09:39:53.465Z,37.43
2019-03-23T09:42:21.716Z,32.38
2019-03-23T09:44:51.223Z,31.60
2019-03-23T09:47:19.459Z,32.30
2019-03-23T09:49:47.878Z,28.73
2019-03-23T09:52:35.718Z,31.57
2019-03-23T09:55:05.422Z,33.97
2019-03-23T09:57:33.666Z,30.37
2019-03-23T10:00:01.908Z,34.37
2019-03-23T10:02:30.162Z,27.50
2019-03-23T10:04:58.405Z,28.43
2019-03-23T10:07:26.716Z,26.17
2019-03-23T10:09:54.985Z,31.33
2019-03-23T10:12:23.273Z,31.82
2019-03-23T10:14:52.053Z,27.50
2019-03-23T10:17:20.310Z,26.13
2019-03-23T10:19:48.560Z,32.43
2019-03-23T10:22:17.077Z,32.83
2019-03-23T10:24:46.101Z,29.67
2019-03-23T10:27:14.352Z,30.13
2019-03-23T10:29:42.581Z,34.43
2019-03-23T10:32:10.849Z,24.30
2019-03-23T10:34:39.101Z,29.73
2019-03-23T10:37:07.349Z,28.80
2019-03-23T10:39:35.681Z,26.80
2019-03-23T10:42:03.931Z,26.23
2019-03-23T10:44:32.173Z,25.77
2019-03-23T10:47:00.581Z,27.33
2019-03-23T10:49:28.891Z,27.37
2019-03-23T10:51:57.137Z,28.50
2019-03-23T10:54:25.487Z,26.90
2019-03-23T10:56:53.742Z,26.23
2019-03-23T10:59:21.975Z,25.50
2019-03-23T11:01:50.349Z,28.30
2019-03-23T11:04:18.642Z,27.47
2019-03-23T11:06:46.889Z,24.53
2019-03-23T11:09:15.154Z,28.23
2019-03-23T11:11:43.410Z,26.97
2019-03-23T11:14:11.647Z,26.83
2019-03-23T11:16:39.923Z,27.70
2019-03-23T11:19:13.340Z,28.23
2019-03-23T11:21:38.130Z,28.60
2019-03-23T11:24:06.437Z,22.73
2019-03-23T11:26:34.661Z,25.60
2019-03-23T11:29:02.910Z,26.63
2019-03-23T11:31:31.182Z,24.10
2019-03-23T11:33:59.408Z,24.37
2019-03-23T11:36:27.681Z,22.83
2019-03-23T11:38:56.134Z,25.63
2019-03-23T11:41:24.385Z,20.00
2019-03-23T11:43:54.082Z,18.92
2019-03-23T11:46:22.349Z,21.73
2019-03-23T11:48:50.584Z,23.73
2019-03-23T11:51:18.885Z,20.62
2019-03-23T11:53:47.240Z,23.50
2019-03-23T11:56:15.514Z,21.23
2019-03-23T11:58:43.755Z,22.53
2019-03-23T12:01:12.012Z,25.27
2019-03-23T12:03:40.246Z,29.20
2019-03-23T12:06:08.496Z,25.30
2019-03-23T12:08:36.765Z,24.13
2019-03-23T12:11:05.010Z,23.10
2019-03-23T12:13:33.253Z,23.67
2019-03-23T12:16:01.513Z,20.17
2019-03-23T12:18:29.775Z,22.80
2019-03-23T12:20:58.046Z,21.90
2019-03-23T12:23:26.375Z,23.27
2019-03-23T12:25:54.620Z,22.80
2019-03-23T12:28:23.396Z,24.77
2019-03-23T12:30:51.837Z,22.33
2019-03-23T12:33:21.470Z,21.48
2019-03-23T12:35:49.895Z,23.80
2019-03-23T12:38:18.154Z,24.03
2019-03-23T12:40:46.379Z,22.40
2019-03-23T12:43:14.619Z,21.93
2019-03-23T12:45:42.871Z,21.93
2019-03-23T12:48:11.131Z,20.97
2019-03-23T12:50:39.367Z,24.33
2019-03-23T12:53:07.626Z,22.73
2019-03-23T12:55:35.881Z,21.47
2019-03-23T12:58:04.120Z,22.73
2019-03-23T13:00:32.661Z,22.90
2019-03-23T13:03:00.932Z,19.73
2019-03-23T13:05:29.230Z,21.37
2019-03-23T13:07:57.489Z,22.87
2019-03-23T13:10:25.747Z,19.87
2019-03-23T13:12:54.092Z,19.83
2019-03-23T13:15:22.342Z,20.60
2019-03-23T13:17:50.618Z,23.43
2019-03-23T13:20:18.896Z,19.50
2019-03-23T13:22:47.190Z,19.23
2019-03-23T13:25:15.435Z,20.23
2019-03-23T13:27:44.866Z,23.37
2019-03-23T13:30:17.064Z,21.23
2019-03-23T13:32:45.313Z,24.87
2019-03-23T13:35:13.550Z,20.93
2019-03-23T13:37:42.055Z,22.40
2019-03-23T13:40:11.347Z,22.73
2019-03-23T13:42:39.650Z,23.30
2019-03-23T13:45:07.984Z,21.50
2019-03-23T13:47:36.237Z,19.60
2019-03-23T13:50:06.234Z,17.47
2019-03-23T13:52:34.480Z,22.77
2019-03-23T13:55:02.713Z,22.70
2019-03-23T13:57:30.970Z,24.87
2019-03-23T13:59:59.227Z,20.73
2019-03-23T14:02:27.474Z,23.60
2019-03-23T14:04:55.717Z,24.35
2019-03-23T14:07:24.075Z,23.40
2019-03-23T14:09:52.307Z,24.67
2019-03-23T14:12:20.598Z,20.80
2019-03-23T14:14:49.234Z,23.73
2019-03-23T14:17:17.483Z,20.65
2019-03-23T14:19:45.722Z,24.07
2019-03-23T14:22:13.981Z,20.37
2019-03-23T14:24:42.227Z,23.07
2019-03-23T14:27:10.483Z,21.97
2019-03-23T14:29:39.570Z,21.43
2019-03-23T14:32:08.149Z,17.50
2019-03-23T14:34:36.386Z,18.10
2019-03-23T14:37:04.709Z,15.70
2019-03-23T14:39:32.975Z,16.93
2019-03-23T14:42:04.858Z,14.30
2019-03-23T14:44:31.183Z,14.60
2019-03-23T14:46:59.417Z,15.40
2019-03-23T14:49:27.664Z,13.13
2019-03-23T14:51:55.914Z,11.97
2019-03-23T14:54:24.166Z,15.50
2019-03-23T14:56:52.403Z,17.60
2019-03-23T14:59:20.650Z,12.75
2019-03-23T15:01:48.893Z,14.47
2019-03-23T15:04:17.134Z,11.13
2019-03-23T15:06:45.387Z,11.73
2019-03-23T15:09:13.895Z,12.07
2019-03-23T15:11:42.125Z,11.07
2019-03-23T15:14:10.380Z,9.93
2019-03-23T15:16:38.646Z,10.20
2019-03-23T15:19:06.883Z,13.87
2019-03-23T15:21:35.132Z,11.60
2019-03-23T15:24:03.436Z,8.90
2019-03-23T15:26:31.653Z,11.10
2019-03-23T15:28:59.961Z,8.93
2019-03-23T15:31:28.193Z,8.67
2019-03-23T15:33:56.734Z,7.20
2019-03-23T15:36:25.038Z,8.47
2019-03-23T15:38:53.271Z,8.80
2019-03-23T15:41:21.506Z,8.80
2019-03-23T15:43:49.759Z,7.63
2019-03-23T15:46:17.999Z,10.10
2019-03-23T15:48:48.267Z,10.58
2019-03-23T15:51:16.531Z,5.00
2019-03-23T15:53:45.042Z,5.00
2019-03-23T15:56:13.266Z,6.10
2019-03-23T15:58:41.521Z,6.87
2019-03-23T16:01:09.753Z,5.37
2019-03-23T16:03:38.020Z,8.33
2019-03-23T16:06:06.903Z,9.63
2019-03-23T16:08:35.165Z,11.53
2019-03-23T16:11:03.428Z,5.57
2019-03-23T16:13:31.690Z,8.87
2019-03-23T16:16:00.313Z,7.67
2019-03-23T16:18:28.553Z,9.07
2019-03-23T16:20:56.895Z,8.80
2019-03-23T16:23:25.139Z,7.90
2019-03-23T16:25:53.378Z,7.40
2019-03-23T16:28:21.631Z,8.43
2019-03-23T16:30:51.536Z,8.00
2019-03-23T16:33:19.775Z,9.50
2019-03-23T16:35:48.020Z,8.33
2019-03-23T16:38:18.074Z,8.35
2019-03-23T16:40:47.662Z,11.33
2019-03-23T16:43:15.926Z,8.23
2019-03-23T16:45:45.794Z,10.53
2019-03-23T16:48:14.126Z,6.97
2019-03-23T16:50:42.348Z,6.63
2019-03-23T16:53:10.669Z,6.47
2019-03-23T16:55:38.897Z,8.33
2019-03-23T16:58:15.736Z,7.33
2019-03-23T17:00:37.783Z,8.87
2019-03-23T17:03:06.524Z,7.10
2019-03-23T17:05:36.419Z,6.27
2019-03-23T17:08:05.616Z,9.83
2019-03-23T17:10:33.853Z,6.40
2019-03-23T17:13:02.109Z,8.57
2019-03-23T17:15:30.345Z,5.03
2019-03-23T17:17:58.585Z,7.67
2019-03-23T17:20:26.842Z,9.53
2019-03-23T17:22:55.072Z,8.70
2019-03-23T17:25:23.305Z,9.33
2019-03-23T17:27:51.562Z,12.80
2019-03-23T17:30:19.810Z,6.67
2019-03-23T17:32:48.145Z,7.40
2019-03-23T17:35:16.382Z,7.33
2019-03-23T17:37:44.834Z,10.23
2019-03-23T17:40:13.437Z,9.13
2019-03-23T17:42:41.679Z,7.10
2019-03-23T17:45:09.915Z,8.87
2019-03-23T17:47:38.159Z,6.03
2019-03-23T17:50:07.085Z,9.30
2019-03-23T17:52:35.321Z,4.83
2019-03-23T17:55:05.580Z,5.63
2019-03-23T17:57:33.841Z,9.77
2019-03-23T18:00:02.482Z,10.90
2019-03-23T18:02:30.715Z,9.43
2019-03-23T18:04:59.727Z,12.80
2019-03-23T18:07:27.965Z,8.93
2019-03-23T18:09:56.199Z,12.10
2019-03-23T18:12:24.743Z,11.07
2019-03-23T18:14:53.177Z,5.67
2019-03-23T18:17:21.498Z,9.60
2019-03-23T18:19:49.737Z,6.27
2019-03-23T18:22:17.975Z,14.28
2019-03-23T18:24:46.213Z,8.50
2019-03-23T18:27:14.529Z,8.40
2019-03-23T18:29:42.766Z,10.60
2019-03-23T18:32:11.001Z,9.07
2019-03-23T18:34:40.294Z,9.53
2019-03-23T18:37:10.015Z,8.67
2019-03-23T18:39:38.598Z,7.37
2019-03-23T18:42:06.845Z,8.00
2019-03-23T18:44:35.087Z,9.43
2019-03-23T18:47:03.326Z,7.47
2019-03-23T18:49:31.578Z,9.20
2019-03-23T18:51:59.809Z,10.13
2019-03-23T18:54:28.087Z,8.33
2019-03-23T18:56:56.416Z,8.83
2019-03-23T18:59:24.647Z,8.03
2019-03-23T19:01:53.978Z,8.13
2019-03-23T19:04:22.233Z,9.03
2019-03-23T19:06:50.469Z,10.37
2019-03-23T19:09:18.701Z,8.75
2019-03-23T19:11:47.039Z,7.90
2019-03-23T19:14:15.273Z,8.85
2019-03-23T19:16:43.509Z,5.67
2019-03-23T19:19:11.750Z,8.90
2019-03-23T19:21:41.614Z,11.30
2019-03-23T19:24:09.862Z,8.70
2019-03-23T19:26:38.135Z,9.97
2019-03-23T19:29:06.707Z,13.33
2019-03-23T19:31:34.951Z,6.53
2019-03-23T19:34:03.424Z,9.13
2019-03-23T19:36:32.893Z,7.70
2019-03-23T19:39:01.278Z,9.63
2019-03-23T19:41:29.913Z,9.03
2019-03-23T19:43:58.239Z,6.77
2019-03-23T19:46:26.639Z,11.53
2019-03-23T19:48:54.900Z,7.57
2019-03-23T19:51:23.210Z,5.40
2019-03-23T19:53:51.526Z,8.33
2019-03-23T19:56:19.767Z,7.50
2019-03-23T19:58:48.021Z,10.63
2019-03-23T20:01:16.383Z,10.27
2019-03-23T20:03:44.647Z,10.33
2019-03-23T20:06:13.025Z,10.63
2019-03-23T20:08:41.271Z,10.83
2019-03-23T20:11:09.778Z,8.33
2019-03-23T20:13:38.018Z,9.53
2019-03-23T20:16:06.660Z,11.63
2019-03-23T20:18:34.915Z,8.50
2019-03-23T20:21:03.221Z,6.80
2019-03-23T20:23:31.462Z,4.53
2019-03-23T20:25:59.718Z,10.50
2019-03-23T20:28:27.954Z,8.53
2019-03-23T20:30:56.237Z,9.47
2019-03-23T20:33:24.476Z,8.53
2019-03-23T20:35:52.746Z,8.03
2019-03-23T20:38:21.070Z,9.67
2019-03-23T20:40:49.410Z,9.67
2019-03-23T20:43:18.055Z,10.47
2019-03-23T20:45:46.290Z,10.70
2019-03-23T20:48:14.650Z,11.30
2019-03-23T20:50:42.893Z,9.50
2019-03-23T20:53:11.300Z,8.60
2019-03-23T20:55:39.617Z,11.77
2019-03-23T20:58:07.899Z,7.20
2019-03-23T21:00:36.161Z,8.90
2019-03-23T21:03:04.511Z,10.87
2019-03-23T21:05:34.128Z,7.73
2019-03-23T21:08:03.447Z,8.30
2019-03-23T21:10:31.702Z,9.83
2019-03-23T21:13:01.231Z,7.50
2019-03-23T21:15:30.826Z,10.17
2019-03-23T21:17:59.118Z,9.48
2019-03-23T21:20:29.057Z,7.53
2019-03-23T21:22:57.289Z,9.83
2019-03-23T21:25:25.547Z,7.33
2019-03-23T21:27:53.857Z,7.47
2019-03-23T21:30:22.098Z,8.60
2019-03-23T21:32:50.338Z,10.30
2019-03-23T21:35:18.585Z,6.10
2019-03-23T21:37:46.819Z,10.87
2019-03-23T21:40:15.111Z,9.80
2019-03-23T21:42:43.345Z,11.37
2019-03-23T21:45:11.586Z,8.67
2019-03-23T21:47:39.856Z,10.70
2019-03-23T21:50:08.354Z,8.03
2019-03-23T21:52:36.718Z,9.20
2019-03-23T21:55:06.206Z,12.13
2019-03-23T21:57:34.612Z,11.37
2019-03-23T22:00:03.026Z,13.00
2019-03-23T22:02:31.363Z,12.15
2019-03-23T22:04:59.633Z,12.00
2019-03-23T22:07:27.869Z,9.43
2019-03-23T22:09:57.608Z,12.37
2019-03-23T22:12:26.040Z,8.60
2019-03-23T22:14:54.296Z,11.00
2019-03-23T22:17:22.547Z,13.80
2019-03-23T22:19:50.802Z,12.23
2019-03-23T22:22:19.138Z,9.07
2019-03-23T22:24:47.508Z,10.73
2019-03-23T22:27:19.215Z,8.33
2019-03-23T22:29:47.314Z,7.87
2019-03-23T22:32:15.552Z,9.20
2019-03-23T22:34:43.955Z,11.93
2019-03-23T22:37:12.185Z,8.77
2019-03-23T22:39:40.798Z,9.73
2019-03-23T22:42:09.099Z,8.37
2019-03-23T22:44:37.329Z,7.37
2019-03-23T22:47:06.495Z,9.70
2019-03-23T22:49:34.752Z,13.87
2019-03-23T22:52:04.160Z,9.53
2019-03-23T22:54:32.406Z,10.57
2019-03-23T22:57:00.646Z,6.33
2019-03-23T22:59:29.031Z,7.80
2019-03-23T23:01:57.501Z,11.90
2019-03-23T23:04:25.735Z,8.50
2019-03-23T23:06:53.974Z,8.10
2019-03-23T23:09:24.772Z,8.10
2019-03-23T23:11:53.005Z,7.83
2019-03-23T23:14:21.278Z,11.40
2019-03-23T23:16:51.165Z,12.70
2019-03-23T23:19:19.417Z,12.73
2019-03-23T23:21:47.698Z,9.87
2019-03-23T23:24:15.953Z,11.38
2019-03-23T23:26:44.193Z,11.10
2019-03-23T23:29:12.415Z,7.58
2019-03-23T23:31:40.962Z,8.20
2019-03-23T23:34:09.218Z,12.03
2019-03-23T23:36:37.488Z,11.87
2019-03-23T23:39:09.810Z,9.55
2019-03-23T23:41:38.045Z,9.90
2019-03-23T23:44:06.287Z,11.57
2019-03-23T23:46:34.751Z,8.40
2019-03-23T23:49:02.992Z,8.83
2019-03-23T23:51:31.209Z,8.23
2019-03-23T23:53:59.455Z,10.73
2019-03-23T23:56:27.693Z,8.37
2019-03-23T23:58:55.935Z,14.87
